Time,TemperatureF,DewpointF,PressureIn,WindDirection,WindDirectionDegrees,WindSpeedMPH,WindSpeedGustMPH,Humidity,HourlyPrecipIn,Conditions,Clouds,dailyrainin,SoftwareType,DateUTC
2013-06-05 00:03:00,61.0,56.8,30.05,ESE,115,0.0,0.0,86,0.00,,,0.00,Wunderground v.1.15,2013-06-05 05:03:00,
2013-06-05 00:13:00,61.0,56.8,30.05,ESE,115,0.0,0.0,86,0.00,,,0.00,Wunderground v.1.15,2013-06-05 05:13:00,
2013-06-05 00:23:00,60.9,56.7,30.04,ESE,115,0.0,0.0,86,0.00,,,0.00,Wunderground v.1.15,2013-06-05 05:23:00,
2013-06-05 00:33:00,60.7,56.5,30.04,ESE,115,0.0,0.0,86,0.00,,,0.00,Wunderground v.1.15,2013-06-05 05:33:00,
2013-06-05 00:43:00,60.6,56.4,30.04,ESE,115,0.0,0.0,86,0.00,,,0.00,Wunderground v.1.15,2013-06-05 05:43:00,
2013-06-05 00:53:00,60.7,56.8,30.04,ESE,115,0.0,0.0,87,0.00,,,0.00,Wunderground v.1.15,2013-06-05 05:53:00,
2013-06-05 01:03:00,61.0,56.8,30.04,ESE,115,0.0,0.0,86,0.00,,,0.00,Wunderground v.1.15,2013-06-05 06:03:00,
2013-06-05 01:13:00,61.2,57.3,30.04,ESE,115,0.0,0.0,87,0.00,,,0.00,Wunderground v.1.15,2013-06-05 06:13:00,
2013-06-05 01:23:00,61.5,57.6,30.04,ESE,115,0.0,0.0,87,0.00,,,0.00,Wunderground v.1.15,2013-06-05 06:23:00,
2013-06-05 01:33:00,61.5,57.3,30.03,ESE,115,0.0,0.0,86,0.00,,,0.00,Wunderground v.1.15,2013-06-05 06:33:00,
2013-06-05 01:43:00,61.5,57.3,30.03,ESE,115,0.0,0.0,86,0.00,,,0.00,Wunderground v.1.15,2013-06-05 06:43:00,
2013-06-05 01:53:00,61.3,57.1,30.03,ESE,115,0.0,0.0,86,0.00,,,0.00,Wunderground v.1.15,2013-06-05 06:53:00,
2013-06-05 02:03:00,61.3,56.8,30.03,ESE,115,0.0,0.0,85,0.00,,,0.00,Wunderground v.1.15,2013-06-05 07:03:00,
2013-06-05 02:13:00,61.2,56.3,30.04,ESE,115,0.0,0.0,84,0.00,,,0.00,Wunderground v.1.15,2013-06-05 07:13:00,
2013-06-05 02:23:00,61.2,56.3,30.03,ESE,115,0.0,0.0,84,0.00,,,0.00,Wunderground v.1.15,2013-06-05 07:23:00,
2013-06-05 02:33:00,61.2,56.0,30.04,ESE,115,0.0,0.0,83,0.00,,,0.00,Wunderground v.1.15,2013-06-05 07:33:00,
2013-06-05 02:43:00,60.9,55.7,30.03,ESE,115,0.0,0.0,83,0.00,,,0.00,Wunderground v.1.15,2013-06-05 07:43:00,
2013-06-05 02:53:00,60.6,55.4,30.03,ESE,115,0.0,0.0,83,0.00,,,0.00,Wunderground v.1.15,2013-06-05 07:53:00,
2013-06-05 03:03:00,60.4,55.2,30.03,ESE,115,0.0,0.0,83,0.00,,,0.00,Wunderground v.1.15,2013-06-05 08:03:00,
2013-06-05 03:13:00,60.3,55.1,30.04,ESE,115,0.0,0.0,83,0.00,,,0.00,Wunderground v.1.15,2013-06-05 08:13:00,
2013-06-05 03:23:00,60.3,55.1,30.04,ESE,115,0.0,0.0,83,0.00,,,0.00,Wunderground v.1.15,2013-06-05 08:23:00,
2013-06-05 03:33:00,60.6,55.4,30.04,ESE,115,0.0,0.0,83,0.00,,,0.00,Wunderground v.1.15,2013-06-05 08:33:00,
2013-06-05 03:43:00,60.7,55.2,30.04,ESE,115,0.0,0.0,82,0.00,,,0.00,Wunderground v.1.15,2013-06-05 08:43:00,
2013-06-05 03:53:00,60.6,55.1,30.03,ESE,115,0.0,0.0,82,0.00,,,0.00,Wunderground v.1.15,2013-06-05 08:53:00,
2013-06-05 04:03:00,60.4,54.5,30.03,ESE,115,0.0,0.0,81,0.00,,,0.00,Wunderground v.1.15,2013-06-05 09:03:00,
2013-06-05 04:13:00,60.3,54.8,30.02,ESE,114,0.0,0.0,82,0.00,,,0.00,Wunderground v.1.15,2013-06-05 09:13:00,
2013-06-05 04:23:00,60.0,54.5,30.03,ESE,114,0.0,0.0,82,0.00,,,0.00,Wunderground v.1.15,2013-06-05 09:23:00,
2013-06-05 04:34:00,60.0,54.8,30.03,ESE,114,0.0,0.0,83,0.00,,,0.00,Wunderground v.1.15,2013-06-05 09:34:00,
2013-06-05 04:43:00,59.8,54.6,30.03,ESE,114,0.0,0.0,83,0.00,,,0.00,Wunderground v.1.15,2013-06-05 09:43:00,
2013-06-05 04:53:00,60.0,55.2,30.04,ESE,114,0.0,0.0,84,0.00,,,0.00,Wunderground v.1.15,2013-06-05 09:53:00,
2013-06-05 05:03:00,60.0,55.2,30.05,ESE,114,0.0,0.0,84,0.00,,,0.00,Wunderground v.1.15,2013-06-05 10:03:00,
2013-06-05 05:13:00,60.1,55.2,30.04,ESE,114,0.0,0.0,84,0.00,,,0.00,Wunderground v.1.15,2013-06-05 10:13:00,
2013-06-05 05:23:00,60.0,55.2,30.04,ESE,114,0.0,0.0,84,0.00,,,0.00,Wunderground v.1.15,2013-06-05 10:23:00,
2013-06-05 05:33:00,60.0,55.5,30.04,ESE,114,0.0,0.0,85,0.00,,,0.00,Wunderground v.1.15,2013-06-05 10:33:00,
2013-06-05 05:43:00,59.8,55.3,30.04,ESE,114,0.0,0.0,85,0.00,,,0.00,Wunderground v.1.15,2013-06-05 10:43:00,
2013-06-05 05:53:00,59.5,55.3,30.03,ESE,114,0.0,0.0,86,0.00,,,0.00,Wunderground v.1.15,2013-06-05 10:53:00,
2013-06-05 06:03:00,59.2,55.3,30.03,ESE,114,0.0,0.0,87,0.00,,,0.00,Wunderground v.1.15,2013-06-05 11:03:00,
2013-06-05 06:13:00,59.2,55.3,30.03,ESE,114,0.0,0.0,87,0.00,,,0.00,Wunderground v.1.15,2013-06-05 11:13:00,
2013-06-05 06:23:00,59.3,55.7,30.03,ESE,114,0.0,0.0,88,0.00,,,0.00,Wunderground v.1.15,2013-06-05 11:23:00,
2013-06-05 06:33:00,60.0,56.4,30.03,ESE,114,0.0,0.0,88,0.00,,,0.00,Wunderground v.1.15,2013-06-05 11:33:00,
2013-06-05 06:43:00,60.6,56.7,30.03,ESE,114,0.0,0.0,87,0.00,,,0.00,Wunderground v.1.15,2013-06-05 11:43:00,
2013-06-05 06:53:00,61.2,57.3,30.02,ESE,114,0.0,0.0,87,0.00,,,0.00,Wunderground v.1.15,2013-06-05 11:53:00,
2013-06-05 07:03:00,62.1,57.5,30.02,ESE,114,0.0,0.0,85,0.00,,,0.00,Wunderground v.1.15,2013-06-05 12:03:00,
2013-06-05 07:13:00,63.0,57.8,30.01,ESE,114,0.0,0.0,83,0.00,,,0.00,Wunderground v.1.15,2013-06-05 12:13:00,
2013-06-05 07:23:00,63.8,57.5,30.01,ESE,114,0.0,3.0,80,0.00,,,0.00,Wunderground v.1.15,2013-06-05 12:23:00,
2013-06-05 07:33:00,64.6,57.2,30.00,ESE,114,0.0,3.0,77,0.00,,,0.00,Wunderground v.1.15,2013-06-05 12:33:00,
2013-06-05 07:43:00,65.4,57.3,30.00,ESE,114,0.0,3.0,75,0.00,,,0.00,Wunderground v.1.15,2013-06-05 12:43:00,
2013-06-05 07:53:00,66.0,57.1,29.99,ESE,114,0.0,0.0,73,0.00,,,0.00,Wunderground v.1.15,2013-06-05 12:53:00,
2013-06-05 08:03:00,66.8,56.7,30.00,ESE,114,0.0,0.0,70,0.00,,,0.00,Wunderground v.1.15,2013-06-05 13:03:00,
2013-06-05 08:13:00,67.5,57.0,29.99,ESE,117,0.0,0.0,69,0.00,,,0.00,Wunderground v.1.15,2013-06-05 13:13:00,
2013-06-05 08:23:00,68.4,56.2,30.00,ESE,117,0.0,0.0,65,0.00,,,0.00,Wunderground v.1.15,2013-06-05 13:23:00,
2013-06-05 08:33:00,69.9,56.3,29.99,ESE,117,0.0,0.0,62,0.00,,,0.00,Wunderground v.1.15,2013-06-05 13:33:00,
2013-06-05 08:43:00,71.3,56.7,29.98,ESE,117,0.0,0.0,60,0.00,,,0.00,Wunderground v.1.15,2013-06-05 13:43:00,
2013-06-05 08:53:00,72.1,57.0,29.99,ESE,117,0.0,0.0,59,0.00,,,0.00,Wunderground v.1.15,2013-06-05 13:53:00,
2013-06-05 09:03:00,72.9,55.8,29.99,ESE,117,0.0,0.0,55,0.00,,,0.00,Wunderground v.1.15,2013-06-05 14:03:00,
2013-06-05 09:13:00,73.6,56.9,29.99,ESE,117,0.0,0.0,56,0.00,,,0.00,Wunderground v.1.15,2013-06-05 14:13:00,
2013-06-05 09:23:00,74.0,56.3,29.99,ESE,117,0.0,0.0,54,0.00,,,0.00,Wunderground v.1.15,2013-06-05 14:23:00,
2013-06-05 09:33:00,73.3,56.2,29.99,South,169,0.0,0.0,55,0.00,,,0.00,Wunderground v.1.15,2013-06-05 14:33:00,
2013-06-05 09:43:00,74.0,56.8,29.99,SSE,161,0.0,0.0,55,0.00,,,0.00,Wunderground v.1.15,2013-06-05 14:43:00,
2013-06-05 09:53:00,75.0,57.7,29.98,SSE,161,0.0,1.0,55,0.00,,,0.00,Wunderground v.1.15,2013-06-05 14:53:00,
2013-06-05 10:03:00,75.3,57.0,29.99,SSE,161,0.0,2.0,53,0.00,,,0.00,Wunderground v.1.15,2013-06-05 15:03:00,
2013-06-05 10:13:00,75.3,57.0,29.99,SSE,162,0.0,4.0,53,0.00,,,0.00,Wunderground v.1.15,2013-06-05 15:13:00,
2013-06-05 10:23:00,75.3,54.8,29.99,SSE,160,0.0,2.0,49,0.00,,,0.00,Wunderground v.1.15,2013-06-05 15:23:00,
2013-06-05 10:33:00,76.6,57.1,29.99,SSE,160,0.0,1.0,51,0.00,,,0.00,Wunderground v.1.15,2013-06-05 15:33:00,
2013-06-05 10:43:00,76.7,55.0,29.99,SSW,193,0.0,1.0,47,0.00,,,0.00,Wunderground v.1.15,2013-06-05 15:43:00,
2013-06-05 10:53:00,76.0,57.6,29.99,South,186,0.0,1.0,53,0.00,,,0.00,Wunderground v.1.15,2013-06-05 15:53:00,
2013-06-05 11:03:00,75.5,55.6,29.99,South,186,0.0,0.0,50,0.00,,,0.00,Wunderground v.1.15,2013-06-05 16:03:00,
2013-06-05 11:13:00,76.6,58.7,29.99,SSW,192,0.0,1.0,54,0.00,,,0.00,Wunderground v.1.15,2013-06-05 16:13:00,
2013-06-05 11:23:00,78.0,57.3,29.99,South,183,0.0,1.0,49,0.00,,,0.00,Wunderground v.1.15,2013-06-05 16:23:00,
2013-06-05 11:33:00,78.3,55.8,29.99,South,183,0.0,0.0,46,0.00,,,0.00,Wunderground v.1.15,2013-06-05 16:33:00,
2013-06-05 11:43:00,78.0,56.1,29.99,South,187,0.0,0.0,47,0.00,,,0.00,Wunderground v.1.15,2013-06-05 16:43:00,
2013-06-05 11:53:00,78.3,57.0,29.99,South,183,0.0,0.0,48,0.00,,,0.00,Wunderground v.1.15,2013-06-05 16:53:00,
2013-06-05 12:03:00,79.0,56.5,29.98,ESE,111,0.0,0.0,46,0.00,,,0.00,Wunderground v.1.15,2013-06-05 17:03:00,
2013-06-05 12:13:00,79.0,58.2,29.97,ESE,111,0.0,0.0,49,0.00,,,0.00,Wunderground v.1.15,2013-06-05 17:13:00,
2013-06-05 12:23:00,79.2,54.8,29.97,ESE,111,0.0,0.0,43,0.00,,,0.00,Wunderground v.1.15,2013-06-05 17:23:00,
2013-06-05 12:33:00,79.4,59.7,29.97,SSE,155,0.0,0.0,51,0.00,,,0.00,Wunderground v.1.15,2013-06-05 17:33:00,
2013-06-05 12:43:00,79.4,58.6,29.96,ESE,115,0.0,0.0,49,0.00,,,0.00,Wunderground v.1.15,2013-06-05 17:43:00,
2013-06-05 12:53:00,79.7,58.8,29.95,ESE,115,0.0,0.0,49,0.00,,,0.00,Wunderground v.1.15,2013-06-05 17:53:00,
2013-06-05 13:03:00,79.9,57.3,29.95,ESE,123,0.0,0.0,46,0.00,,,0.00,Wunderground v.1.15,2013-06-05 18:03:00,
2013-06-05 13:13:00,79.7,57.1,29.95,ESE,113,0.0,0.0,46,0.00,,,0.00,Wunderground v.1.15,2013-06-05 18:13:00,
2013-06-05 13:23:00,79.7,57.7,29.95,ESE,108,0.0,0.0,47,0.00,,,0.00,Wunderground v.1.15,2013-06-05 18:23:00,
2013-06-05 13:33:00,79.7,55.9,29.95,South,172,0.0,0.0,44,0.00,,,0.00,Wunderground v.1.15,2013-06-05 18:33:00,
2013-06-05 13:43:00,80.1,58.0,29.95,South,190,0.0,0.0,47,0.00,,,0.00,Wunderground v.1.15,2013-06-05 18:43:00,
2013-06-05 13:53:00,79.9,58.5,29.94,South,188,0.0,0.0,48,0.00,,,0.00,Wunderground v.1.15,2013-06-05 18:53:00,
2013-06-05 14:04:00,79.7,53.9,29.94,South,180,0.0,0.0,41,0.00,,,0.00,Wunderground v.1.15,2013-06-05 19:04:00,
2013-06-05 14:13:00,80.5,57.8,29.94,SSE,166,0.0,0.0,46,0.00,,,0.00,Wunderground v.1.15,2013-06-05 19:13:00,
2013-06-05 14:23:00,79.9,56.0,29.93,SSE,165,0.0,0.0,44,0.00,,,0.00,Wunderground v.1.15,2013-06-05 19:23:00,
2013-06-05 14:33:00,79.4,57.4,29.93,SSE,165,0.0,0.0,47,0.00,,,0.00,Wunderground v.1.15,2013-06-05 19:33:00,
2013-06-05 14:43:00,80.5,57.8,29.93,SSE,165,0.0,0.0,46,0.00,,,0.00,Wunderground v.1.15,2013-06-05 19:43:00,
2013-06-05 14:53:00,80.6,55.4,29.92,SSE,165,0.0,0.0,42,0.00,,,0.00,Wunderground v.1.15,2013-06-05 19:53:00,
2013-06-05 15:04:00,80.6,55.4,29.92,SSE,165,0.0,0.0,42,0.00,,,0.00,Wunderground v.1.15,2013-06-05 20:04:00,
2013-06-05 15:13:00,80.8,56.9,29.92,South,178,0.0,0.0,44,0.00,,,0.00,Wunderground v.1.15,2013-06-05 20:13:00,
2013-06-05 15:23:00,80.3,55.1,29.91,South,178,0.0,0.0,42,0.00,,,0.00,Wunderground v.1.15,2013-06-05 20:23:00,
2013-06-05 15:33:00,79.7,55.2,29.91,South,178,0.0,0.0,43,0.00,,,0.00,Wunderground v.1.15,2013-06-05 20:33:00,
2013-06-05 15:43:00,80.5,55.3,29.91,South,178,0.0,0.0,42,0.00,,,0.00,Wunderground v.1.15,2013-06-05 20:43:00,
2013-06-05 15:53:00,81.2,57.2,29.91,South,178,0.0,0.0,44,0.00,,,0.00,Wunderground v.1.15,2013-06-05 20:53:00,
2013-06-05 16:03:00,80.6,51.2,29.90,South,178,0.0,0.0,36,0.00,,,0.00,Wunderground v.1.15,2013-06-05 21:03:00,
2013-06-05 16:13:00,80.3,55.1,29.90,South,178,0.0,0.0,42,0.00,,,0.00,Wunderground v.1.15,2013-06-05 21:13:00,
2013-06-05 16:23:00,79.9,52.7,29.89,South,178,0.0,0.0,39,0.00,,,0.00,Wunderground v.1.15,2013-06-05 21:23:00,
2013-06-05 16:33:00,80.8,51.4,29.89,South,178,0.0,0.0,36,0.00,,,0.00,Wunderground v.1.15,2013-06-05 21:33:00,
2013-06-05 16:43:00,81.4,51.1,29.88,NNE,13,0.0,0.0,35,0.00,,,0.00,Wunderground v.1.15,2013-06-05 21:43:00,
2013-06-05 16:53:00,81.6,56.3,29.88,East,84,0.0,0.0,42,0.00,,,0.00,Wunderground v.1.15,2013-06-05 21:53:00,
2013-06-05 17:03:00,81.0,53.7,29.88,NE,40,0.0,0.0,39,0.00,,,0.00,Wunderground v.1.15,2013-06-05 22:03:00,
2013-06-05 17:13:00,80.6,57.3,29.88,NE,40,0.0,0.0,45,0.00,,,0.00,Wunderground v.1.15,2013-06-05 22:13:00,
2013-06-05 17:23:00,80.3,56.4,29.87,East,87,0.0,0.0,44,0.00,,,0.00,Wunderground v.1.15,2013-06-05 22:23:00,
2013-06-05 17:33:00,79.9,55.4,29.88,East,87,0.0,0.0,43,0.00,,,0.00,Wunderground v.1.15,2013-06-05 22:33:00,
2013-06-05 17:44:00,80.1,59.2,29.88,East,87,0.0,0.0,49,0.00,,,0.00,Wunderground v.1.15,2013-06-05 22:44:00,
2013-06-05 17:53:00,79.7,58.3,29.87,NNE,30,0.0,0.0,48,0.00,,,0.00,Wunderground v.1.15,2013-06-05 22:53:00,
2013-06-05 18:03:00,79.0,55.8,29.87,NNE,30,0.0,2.0,45,0.00,,,0.00,Wunderground v.1.15,2013-06-05 23:03:00,
2013-06-05 18:13:00,78.7,60.1,29.87,NNE,30,0.0,0.0,53,0.00,,,0.00,Wunderground v.1.15,2013-06-05 23:13:00,
2013-06-05 18:23:00,78.1,58.5,29.87,NNE,30,0.0,1.0,51,0.00,,,0.00,Wunderground v.1.15,2013-06-05 23:23:00,
2013-06-05 18:33:00,77.4,58.9,29.87,NNE,28,0.0,0.0,53,0.00,,,0.00,Wunderground v.1.15,2013-06-05 23:33:00,
2013-06-05 18:43:00,76.6,57.1,29.88,NNE,28,0.0,0.0,51,0.00,,,0.00,Wunderground v.1.15,2013-06-05 23:43:00,
2013-06-05 18:53:00,76.2,61.8,29.87,NNE,28,0.0,0.0,61,0.00,,,0.00,Wunderground v.1.15,2013-06-05 23:53:00,
2013-06-05 19:03:00,75.7,59.4,29.87,NNE,28,0.0,0.0,57,0.00,,,0.00,Wunderground v.1.15,2013-06-06 00:03:00,
2013-06-05 19:13:00,75.3,59.0,29.87,NNE,28,0.0,0.0,57,0.00,,,0.00,Wunderground v.1.15,2013-06-06 00:13:00,
2013-06-05 19:23:00,74.8,58.1,29.87,NNE,28,0.0,0.0,56,0.00,,,0.00,Wunderground v.1.15,2013-06-06 00:23:00,
2013-06-05 19:33:00,74.5,57.8,29.87,NNE,28,0.0,0.0,56,0.00,,,0.00,Wunderground v.1.15,2013-06-06 00:33:00,
2013-06-05 19:43:00,74.5,58.3,29.87,NNE,28,0.0,0.0,57,0.00,,,0.00,Wunderground v.1.15,2013-06-06 00:43:00,
2013-06-05 19:53:00,74.1,57.4,29.87,NNE,28,0.0,0.0,56,0.00,,,0.00,Wunderground v.1.15,2013-06-06 00:53:00,
2013-06-05 20:03:00,73.8,57.1,29.87,NNE,28,0.0,0.0,56,0.00,,,0.00,Wunderground v.1.15,2013-06-06 01:03:00,
2013-06-05 20:13:00,73.5,56.8,29.87,NNE,28,0.0,0.0,56,0.00,,,0.00,Wunderground v.1.15,2013-06-06 01:13:00,
2013-06-05 20:23:00,72.9,56.8,29.87,NNE,28,0.0,0.0,57,0.00,,,0.00,Wunderground v.1.15,2013-06-06 01:23:00,
2013-06-05 20:33:00,72.8,56.7,29.87,NNE,28,0.0,0.0,57,0.00,,,0.00,Wunderground v.1.15,2013-06-06 01:33:00,
2013-06-05 20:43:00,72.6,56.0,29.87,NNE,28,0.0,0.0,56,0.00,,,0.00,Wunderground v.1.15,2013-06-06 01:43:00,
2013-06-05 20:53:00,72.4,55.8,29.87,NNE,28,0.0,0.0,56,0.00,,,0.00,Wunderground v.1.15,2013-06-06 01:53:00,
2013-06-05 21:03:00,72.4,55.8,29.87,NNE,28,0.0,0.0,56,0.00,,,0.00,Wunderground v.1.15,2013-06-06 02:03:00,
2013-06-05 21:13:00,72.3,56.7,29.87,NNE,28,0.0,0.0,58,0.00,,,0.00,Wunderground v.1.15,2013-06-06 02:13:00,
2013-06-05 21:23:00,72.3,56.7,29.88,NNE,28,0.0,0.0,58,0.00,,,0.00,Wunderground v.1.15,2013-06-06 02:23:00,
2013-06-05 21:33:00,72.3,56.7,29.88,NNE,28,0.0,0.0,58,0.00,,,0.00,Wunderground v.1.15,2013-06-06 02:33:00,
2013-06-05 21:43:00,72.4,56.3,29.88,NE,44,0.0,0.0,57,0.00,,,0.00,Wunderground v.1.15,2013-06-06 02:43:00,
2013-06-05 21:53:00,72.6,56.0,29.88,NNE,19,0.0,0.0,56,0.00,,,0.00,Wunderground v.1.15,2013-06-06 02:53:00,
2013-06-05 22:03:00,72.8,56.7,29.88,NNE,31,0.0,0.0,57,0.00,,,0.00,Wunderground v.1.15,2013-06-06 03:03:00,
2013-06-05 22:13:00,72.4,57.3,29.88,NNE,33,0.0,0.0,59,0.00,,,0.00,Wunderground v.1.15,2013-06-06 03:13:00,
2013-06-05 22:23:00,72.3,57.6,29.88,NNE,28,0.0,0.0,60,0.00,,,0.00,Wunderground v.1.15,2013-06-06 03:23:00,
2013-06-05 22:33:00,71.9,58.2,29.88,NNE,28,0.0,0.0,62,0.00,,,0.00,Wunderground v.1.15,2013-06-06 03:33:00,
2013-06-05 22:43:00,71.6,57.9,29.88,NNE,28,0.0,0.0,62,0.00,,,0.00,Wunderground v.1.15,2013-06-06 03:43:00,
2013-06-05 22:53:00,71.4,57.7,29.88,NNE,15,0.0,0.0,62,0.00,,,0.00,Wunderground v.1.15,2013-06-06 03:53:00,
2013-06-05 23:04:00,71.6,57.0,29.87,North,11,0.0,0.0,60,0.00,,,0.00,Wunderground v.1.15,2013-06-06 04:04:00,
2013-06-05 23:08:00,71.8,56.7,29.87,NNE,17,0.0,0.0,59,0.00,,,0.00,Wunderground v.1.15,2013-06-06 04:08:00,
2013-06-05 23:13:00,71.8,57.2,29.87,NNE,27,0.0,0.0,60,0.00,,,0.00,Wunderground v.1.15,2013-06-06 04:13:00,
2013-06-05 23:18:00,71.6,57.4,29.87,NNW,346,0.0,0.0,61,0.00,,,0.00,Wunderground v.1.15,2013-06-06 04:18:00,
2013-06-05 23:23:00,71.4,57.2,29.87,NNE,15,0.0,0.0,61,0.00,,,0.00,Wunderground v.1.15,2013-06-06 04:23:00,
2013-06-05 23:33:00,71.1,58.3,29.87,NNE,27,0.0,0.0,64,0.00,,,0.00,Wunderground v.1.15,2013-06-06 04:33:00,
2013-06-05 23:43:00,70.4,59.3,29.87,NNW,334,0.0,0.0,68,0.00,,,0.00,Wunderground v.1.15,2013-06-06 04:43:00,
2013-06-05 23:53:00,69.8,59.2,29.87,ENE,57,0.0,0.0,69,0.00,,,0.00,Wunderground v.1.15,2013-06-06 04:53:00,